Weather at Dunaújváros Airfield

Public forecast

Using degrees Celsius for public forecast. Weather courtesy of forecast.io.

Closest aviation weather report (METAR) to Dunaújváros Airfield

Closest report is Kecskemét Airport, 34.3 nm (63.5 km) E. Retrieved 2021/01/28 00:15 UTC (19 minutes ago):

LHKE 280015Z 31006KT CAVOK M05/M07 Q1013 R12/01//95 NOSIG RMK BLU

Closest aviation forecast (TAF) to Dunaújváros Airfield

Forecast is more than 12 hours old.

Closest forecast is Kecskemét Airport, 34.3 nm (63.5 km) E. Retrieved 2020-10-23 00:25 UTC (3 months ago):

TAF LHKE 222315Z 2300/2324 VRB03KT 0600 FG NSC TEMPO 2300/2306 0150 FG OVC002 BECMG 2306/2309 1500 BR BKN003 TEMPO 2308/2312 23005KT BECMG 2309/2311 5000 BR BKN005 TEMPO 2311/2315 8000 NSW SCT015 BECMG 2317/2320 1500 BR MIBCFG TEMPO 2321/2324 0800 FG